sensor_id;sensor_type;location;lat;lon;timestamp;temperature;humidity
74294;DHT22;64044;59.904;10.738;2023-04-03T00:01:29;3.60;40.80
74294;DHT22;64044;59.904;10.738;2023-04-03T00:03:55;3.60;40.30
74294;DHT22;64044;59.904;10.738;2023-04-03T00:06:21;3.50;40.60
74294;DHT22;64044;59.904;10.738;2023-04-03T00:08:48;3.50;40.30
74294;DHT22;64044;59.904;10.738;2023-04-03T00:11:14;3.50;40.70
74294;DHT22;64044;59.904;10.738;2023-04-03T00:13:40;3.40;41.30
74294;DHT22;64044;59.904;10.738;2023-04-03T00:16:07;3.40;41.20
74294;DHT22;64044;59.904;10.738;2023-04-03T00:18:33;3.40;40.60
74294;DHT22;64044;59.904;10.738;2023-04-03T00:20:59;3.40;40.70
74294;DHT22;64044;59.904;10.738;2023-04-03T00:23:25;3.40;41.00
74294;DHT22;64044;59.904;10.738;2023-04-03T00:25:51;3.40;41.20
74294;DHT22;64044;59.904;10.738;2023-04-03T00:28:17;3.40;41.50
74294;DHT22;64044;59.904;10.738;2023-04-03T00:30:43;3.30;41.50
74294;DHT22;64044;59.904;10.738;2023-04-03T00:33:12;3.30;41.80
74294;DHT22;64044;59.904;10.738;2023-04-03T00:35:38;3.30;42.60
74294;DHT22;64044;59.904;10.738;2023-04-03T00:38:04;3.20;41.60
74294;DHT22;64044;59.904;10.738;2023-04-03T00:40:34;3.20;42.20
74294;DHT22;64044;59.904;10.738;2023-04-03T00:43:00;3.20;42.70
74294;DHT22;64044;59.904;10.738;2023-04-03T00:45:31;3.20;43.70
74294;DHT22;64044;59.904;10.738;2023-04-03T00:47:58;3.20;42.10
74294;DHT22;64044;59.904;10.738;2023-04-03T00:50:27;3.20;41.50
74294;DHT22;64044;59.904;10.738;2023-04-03T00:52:54;3.10;42.00
74294;DHT22;64044;59.904;10.738;2023-04-03T00:55:21;3.10;42.40
74294;DHT22;64044;59.904;10.738;2023-04-03T00:57:47;3.10;42.70
74294;DHT22;64044;59.904;10.738;2023-04-03T01:00:16;3.10;42.20
74294;DHT22;64044;59.904;10.738;2023-04-03T01:02:44;3.00;42.40
74294;DHT22;64044;59.904;10.738;2023-04-03T01:05:11;3.00;42.90
74294;DHT22;64044;59.904;10.738;2023-04-03T01:07:37;3.00;42.30
74294;DHT22;64044;59.904;10.738;2023-04-03T01:10:07;2.90;42.70
74294;DHT22;64044;59.904;10.738;2023-04-03T01:12:38;2.90;42.40
74294;DHT22;64044;59.904;10.738;2023-04-03T01:15:09;2.90;42.90
74294;DHT22;64044;59.904;10.738;2023-04-03T01:17:36;2.90;42.70
74294;DHT22;64044;59.904;10.738;2023-04-03T01:26:03;2.80;43.50
74294;DHT22;64044;59.904;10.738;2023-04-03T01:28:32;2.80;44.10
74294;DHT22;64044;59.904;10.738;2023-04-03T01:33:55;2.80;43.60
74294;DHT22;64044;59.904;10.738;2023-04-03T01:36:24;2.70;42.70
74294;DHT22;64044;59.904;10.738;2023-04-03T01:38:51;2.70;43.40
74294;DHT22;64044;59.904;10.738;2023-04-03T01:41:17;2.70;43.80
74294;DHT22;64044;59.904;10.738;2023-04-03T01:43:43;2.60;43.70
74294;DHT22;64044;59.904;10.738;2023-04-03T01:46:09;2.60;43.60
74294;DHT22;64044;59.904;10.738;2023-04-03T01:48:35;2.60;43.30
74294;DHT22;64044;59.904;10.738;2023-04-03T01:51:00;2.60;43.60
74294;DHT22;64044;59.904;10.738;2023-04-03T01:53:26;2.60;43.50
74294;DHT22;64044;59.904;10.738;2023-04-03T01:55:52;2.50;43.80
74294;DHT22;64044;59.904;10.738;2023-04-03T01:58:18;2.50;43.90
74294;DHT22;64044;59.904;10.738;2023-04-03T02:00:43;2.50;43.90
74294;DHT22;64044;59.904;10.738;2023-04-03T02:03:09;2.50;43.80
74294;DHT22;64044;59.904;10.738;2023-04-03T02:05:35;2.50;44.30
74294;DHT22;64044;59.904;10.738;2023-04-03T02:08:01;2.50;44.20
74294;DHT22;64044;59.904;10.738;2023-04-03T02:10:27;2.50;44.00
74294;DHT22;64044;59.904;10.738;2023-04-03T02:12:52;2.40;45.30
74294;DHT22;64044;59.904;10.738;2023-04-03T02:15:18;2.40;44.60
74294;DHT22;64044;59.904;10.738;2023-04-03T02:17:44;2.40;44.60
74294;DHT22;64044;59.904;10.738;2023-04-03T02:20:10;2.40;44.20
74294;DHT22;64044;59.904;10.738;2023-04-03T02:22:36;2.40;44.80
74294;DHT22;64044;59.904;10.738;2023-04-03T02:25:02;2.40;44.40
74294;DHT22;64044;59.904;10.738;2023-04-03T02:27:27;2.30;44.60
74294;DHT22;64044;59.904;10.738;2023-04-03T02:29:53;2.30;44.60
74294;DHT22;64044;59.904;10.738;2023-04-03T02:32:19;2.30;44.70
74294;DHT22;64044;59.904;10.738;2023-04-03T02:34:45;2.30;44.90
74294;DHT22;64044;59.904;10.738;2023-04-03T02:37:11;2.30;44.40
74294;DHT22;64044;59.904;10.738;2023-04-03T02:39:36;2.30;44.00
74294;DHT22;64044;59.904;10.738;2023-04-03T02:42:02;2.20;44.40
74294;DHT22;64044;59.904;10.738;2023-04-03T02:44:28;2.20;45.20
74294;DHT22;64044;59.904;10.738;2023-04-03T02:46:54;2.20;45.20
74294;DHT22;64044;59.904;10.738;2023-04-03T02:49:20;2.20;44.90
74294;DHT22;64044;59.904;10.738;2023-04-03T02:51:45;2.20;44.90
74294;DHT22;64044;59.904;10.738;2023-04-03T02:54:11;2.20;44.70
74294;DHT22;64044;59.904;10.738;2023-04-03T02:56:37;2.10;45.20
74294;DHT22;64044;59.904;10.738;2023-04-03T02:59:03;2.10;45.30
74294;DHT22;64044;59.904;10.738;2023-04-03T03:01:28;2.10;45.10
74294;DHT22;64044;59.904;10.738;2023-04-03T03:03:57;2.10;45.40
74294;DHT22;64044;59.904;10.738;2023-04-03T03:06:23;2.10;45.40
74294;DHT22;64044;59.904;10.738;2023-04-03T03:08:49;2.10;46.20
74294;DHT22;64044;59.904;10.738;2023-04-03T03:11:15;2.10;46.10
74294;DHT22;64044;59.904;10.738;2023-04-03T03:13:40;2.20;46.00
74294;DHT22;64044;59.904;10.738;2023-04-03T03:16:07;2.20;45.80
74294;DHT22;64044;59.904;10.738;2023-04-03T03:18:33;2.30;46.20
74294;DHT22;64044;59.904;10.738;2023-04-03T03:21:01;2.40;47.00
74294;DHT22;64044;59.904;10.738;2023-04-03T03:23:28;2.40;46.90
74294;DHT22;64044;59.904;10.738;2023-04-03T03:26:06;2.50;47.40
74294;DHT22;64044;59.904;10.738;2023-04-03T03:28:32;2.60;47.40
74294;DHT22;64044;59.904;10.738;2023-04-03T03:30:59;2.70;46.90
74294;DHT22;64044;59.904;10.738;2023-04-03T03:33:25;2.80;46.50
74294;DHT22;64044;59.904;10.738;2023-04-03T03:35:52;2.80;46.00
74294;DHT22;64044;59.904;10.738;2023-04-03T03:38:18;2.90;46.40
74294;DHT22;64044;59.904;10.738;2023-04-03T03:40:44;3.00;46.00
74294;DHT22;64044;59.904;10.738;2023-04-03T03:43:10;3.00;45.90
74294;DHT22;64044;59.904;10.738;2023-04-03T03:45:36;3.10;46.00
74294;DHT22;64044;59.904;10.738;2023-04-03T03:48:02;3.20;46.20
74294;DHT22;64044;59.904;10.738;2023-04-03T03:50:28;3.20;46.10
74294;DHT22;64044;59.904;10.738;2023-04-03T03:52:53;3.30;46.20
74294;DHT22;64044;59.904;10.738;2023-04-03T03:55:19;3.30;45.90
74294;DHT22;64044;59.904;10.738;2023-04-03T03:57:45;3.40;45.80
74294;DHT22;64044;59.904;10.738;2023-04-03T04:00:11;3.40;45.50
74294;DHT22;64044;59.904;10.738;2023-04-03T04:02:37;3.40;45.60
74294;DHT22;64044;59.904;10.738;2023-04-03T04:05:03;3.50;45.70
74294;DHT22;64044;59.904;10.738;2023-04-03T04:07:29;3.50;45.70
74294;DHT22;64044;59.904;10.738;2023-04-03T04:09:54;3.50;45.70
74294;DHT22;64044;59.904;10.738;2023-04-03T04:12:20;3.50;45.60
74294;DHT22;64044;59.904;10.738;2023-04-03T04:14:46;3.50;45.70
74294;DHT22;64044;59.904;10.738;2023-04-03T04:17:13;3.60;45.70
74294;DHT22;64044;59.904;10.738;2023-04-03T04:19:39;3.60;45.70
74294;DHT22;64044;59.904;10.738;2023-04-03T04:22:05;3.70;45.30
74294;DHT22;64044;59.904;10.738;2023-04-03T04:24:31;3.60;45.30
74294;DHT22;64044;59.904;10.738;2023-04-03T04:26:57;3.70;45.50
74294;DHT22;64044;59.904;10.738;2023-04-03T04:29:22;3.70;45.20
74294;DHT22;64044;59.904;10.738;2023-04-03T04:31:48;3.70;45.30
74294;DHT22;64044;59.904;10.738;2023-04-03T04:34:14;3.80;45.40
74294;DHT22;64044;59.904;10.738;2023-04-03T04:36:40;3.80;45.30
74294;DHT22;64044;59.904;10.738;2023-04-03T04:39:06;3.80;45.20
74294;DHT22;64044;59.904;10.738;2023-04-03T04:41:32;3.90;44.90
74294;DHT22;64044;59.904;10.738;2023-04-03T04:43:57;3.90;44.70
74294;DHT22;64044;59.904;10.738;2023-04-03T04:46:23;3.90;44.80
74294;DHT22;64044;59.904;10.738;2023-04-03T04:48:49;4.00;45.30
74294;DHT22;64044;59.904;10.738;2023-04-03T04:51:15;4.00;45.30
74294;DHT22;64044;59.904;10.738;2023-04-03T04:53:41;4.10;45.40
74294;DHT22;64044;59.904;10.738;2023-04-03T04:56:08;4.10;45.10
74294;DHT22;64044;59.904;10.738;2023-04-03T04:58:34;4.10;44.80
74294;DHT22;64044;59.904;10.738;2023-04-03T05:01:04;4.20;44.60
74294;DHT22;64044;59.904;10.738;2023-04-03T05:03:31;4.20;44.50
74294;DHT22;64044;59.904;10.738;2023-04-03T05:05:57;4.20;44.90
74294;DHT22;64044;59.904;10.738;2023-04-03T05:08:24;4.30;45.00
74294;DHT22;64044;59.904;10.738;2023-04-03T05:10:50;4.30;45.00
74294;DHT22;64044;59.904;10.738;2023-04-03T05:13:15;4.30;44.80
74294;DHT22;64044;59.904;10.738;2023-04-03T05:15:41;4.30;44.90
74294;DHT22;64044;59.904;10.738;2023-04-03T05:18:07;4.30;45.30
74294;DHT22;64044;59.904;10.738;2023-04-03T05:20:33;4.30;45.20
74294;DHT22;64044;59.904;10.738;2023-04-03T05:22:59;4.40;45.00
74294;DHT22;64044;59.904;10.738;2023-04-03T05:25:25;4.40;45.10
74294;DHT22;64044;59.904;10.738;2023-04-03T05:27:51;4.40;45.30
74294;DHT22;64044;59.904;10.738;2023-04-03T05:30:17;4.40;45.30
74294;DHT22;64044;59.904;10.738;2023-04-03T05:32:43;4.40;45.00
74294;DHT22;64044;59.904;10.738;2023-04-03T05:35:09;4.50;45.20
74294;DHT22;64044;59.904;10.738;2023-04-03T05:37:36;4.50;45.00
74294;DHT22;64044;59.904;10.738;2023-04-03T05:40:03;4.50;44.90
74294;DHT22;64044;59.904;10.738;2023-04-03T05:42:29;4.50;45.00
74294;DHT22;64044;59.904;10.738;2023-04-03T05:44:55;4.50;45.00
74294;DHT22;64044;59.904;10.738;2023-04-03T05:47:21;4.60;44.90
74294;DHT22;64044;59.904;10.738;2023-04-03T05:49:46;4.60;44.70
74294;DHT22;64044;59.904;10.738;2023-04-03T05:52:38;4.60;44.60
74294;DHT22;64044;59.904;10.738;2023-04-03T05:55:05;4.70;45.20
74294;DHT22;64044;59.904;10.738;2023-04-03T05:57:31;4.70;44.70
74294;DHT22;64044;59.904;10.738;2023-04-03T05:59:57;4.70;44.60
74294;DHT22;64044;59.904;10.738;2023-04-03T06:02:23;4.80;44.60
74294;DHT22;64044;59.904;10.738;2023-04-03T06:04:49;4.80;44.60
74294;DHT22;64044;59.904;10.738;2023-04-03T06:07:21;4.80;44.60
74294;DHT22;64044;59.904;10.738;2023-04-03T06:09:49;4.90;44.80
74294;DHT22;64044;59.904;10.738;2023-04-03T06:12:15;4.90;44.60
74294;DHT22;64044;59.904;10.738;2023-04-03T06:14:41;4.90;44.60
74294;DHT22;64044;59.904;10.738;2023-04-03T06:17:07;5.00;44.60
74294;DHT22;64044;59.904;10.738;2023-04-03T06:19:34;5.00;44.70
74294;DHT22;64044;59.904;10.738;2023-04-03T06:22:01;5.10;44.80
74294;DHT22;64044;59.904;10.738;2023-04-03T06:24:28;5.20;44.80
74294;DHT22;64044;59.904;10.738;2023-04-03T06:26:54;5.20;44.80
74294;DHT22;64044;59.904;10.738;2023-04-03T06:29:20;5.30;44.60
74294;DHT22;64044;59.904;10.738;2023-04-03T06:31:47;5.30;44.60
74294;DHT22;64044;59.904;10.738;2023-04-03T06:34:13;5.40;44.70
74294;DHT22;64044;59.904;10.738;2023-04-03T06:36:39;5.40;44.90
74294;DHT22;64044;59.904;10.738;2023-04-03T06:39:06;5.50;44.80
74294;DHT22;64044;59.904;10.738;2023-04-03T06:41:32;5.60;44.80
74294;DHT22;64044;59.904;10.738;2023-04-03T06:43:58;5.70;44.60
74294;DHT22;64044;59.904;10.738;2023-04-03T06:46:25;5.80;44.60
74294;DHT22;64044;59.904;10.738;2023-04-03T06:48:52;5.80;44.40
74294;DHT22;64044;59.904;10.738;2023-04-03T06:51:26;5.90;44.60
74294;DHT22;64044;59.904;10.738;2023-04-03T06:53:54;5.90;44.60
74294;DHT22;64044;59.904;10.738;2023-04-03T06:56:20;5.90;44.30
74294;DHT22;64044;59.904;10.738;2023-04-03T06:58:46;6.00;44.30
74294;DHT22;64044;59.904;10.738;2023-04-03T07:01:14;6.00;44.30
74294;DHT22;64044;59.904;10.738;2023-04-03T07:03:40;6.10;44.50
74294;DHT22;64044;59.904;10.738;2023-04-03T07:06:07;6.10;44.30
74294;DHT22;64044;59.904;10.738;2023-04-03T07:08:33;6.20;44.30
74294;DHT22;64044;59.904;10.738;2023-04-03T07:11:00;6.10;44.20
74294;DHT22;64044;59.904;10.738;2023-04-03T07:13:26;6.20;44.40
74294;DHT22;64044;59.904;10.738;2023-04-03T07:15:52;6.20;44.20
74294;DHT22;64044;59.904;10.738;2023-04-03T07:18:18;6.20;44.20
74294;DHT22;64044;59.904;10.738;2023-04-03T07:20:45;6.20;44.20
74294;DHT22;64044;59.904;10.738;2023-04-03T07:23:11;6.30;44.10
74294;DHT22;64044;59.904;10.738;2023-04-03T07:25:41;6.30;44.00
74294;DHT22;64044;59.904;10.738;2023-04-03T07:28:07;6.30;43.90
74294;DHT22;64044;59.904;10.738;2023-04-03T07:30:33;6.40;43.80
74294;DHT22;64044;59.904;10.738;2023-04-03T07:32:59;6.40;43.80
74294;DHT22;64044;59.904;10.738;2023-04-03T07:35:25;6.40;43.80
74294;DHT22;64044;59.904;10.738;2023-04-03T07:37:51;6.40;43.80
74294;DHT22;64044;59.904;10.738;2023-04-03T07:40:16;6.40;44.60
74294;DHT22;64044;59.904;10.738;2023-04-03T07:42:42;6.40;44.10
74294;DHT22;64044;59.904;10.738;2023-04-03T07:45:08;6.40;44.20
74294;DHT22;64044;59.904;10.738;2023-04-03T07:47:34;6.40;44.30
74294;DHT22;64044;59.904;10.738;2023-04-03T07:50:00;6.50;44.50
74294;DHT22;64044;59.904;10.738;2023-04-03T07:52:26;6.50;45.30
74294;DHT22;64044;59.904;10.738;2023-04-03T07:54:51;6.50;44.70
74294;DHT22;64044;59.904;10.738;2023-04-03T07:57:17;6.60;44.80
74294;DHT22;64044;59.904;10.738;2023-04-03T07:59:43;6.60;44.90
74294;DHT22;64044;59.904;10.738;2023-04-03T08:02:12;6.70;45.10
74294;DHT22;64044;59.904;10.738;2023-04-03T08:04:38;6.70;45.90
74294;DHT22;64044;59.904;10.738;2023-04-03T08:07:04;6.70;45.30
74294;DHT22;64044;59.904;10.738;2023-04-03T08:09:30;6.80;45.30
74294;DHT22;64044;59.904;10.738;2023-04-03T08:11:57;6.80;45.50
74294;DHT22;64044;59.904;10.738;2023-04-03T08:14:23;6.90;45.90
74294;DHT22;64044;59.904;10.738;2023-04-03T08:16:49;7.00;45.80
74294;DHT22;64044;59.904;10.738;2023-04-03T08:19:16;7.00;45.80
74294;DHT22;64044;59.904;10.738;2023-04-03T08:21:44;7.10;45.90
74294;DHT22;64044;59.904;10.738;2023-04-03T08:24:11;7.20;46.00
74294;DHT22;64044;59.904;10.738;2023-04-03T08:26:37;7.30;46.00
74294;DHT22;64044;59.904;10.738;2023-04-03T08:29:03;7.30;46.10
74294;DHT22;64044;59.904;10.738;2023-04-03T08:31:28;7.50;45.90
74294;DHT22;64044;59.904;10.738;2023-04-03T08:33:56;7.50;45.70
74294;DHT22;64044;59.904;10.738;2023-04-03T08:36:26;7.60;45.60
74294;DHT22;64044;59.904;10.738;2023-04-03T08:38:53;7.60;45.50
74294;DHT22;64044;59.904;10.738;2023-04-03T08:41:36;7.70;45.50
74294;DHT22;64044;59.904;10.738;2023-04-03T08:50:10;7.80;45.50
74294;DHT22;64044;59.904;10.738;2023-04-03T08:52:44;7.80;45.60
74294;DHT22;64044;59.904;10.738;2023-04-03T08:55:33;7.90;45.70
74294;DHT22;64044;59.904;10.738;2023-04-03T08:58:05;7.90;45.70
74294;DHT22;64044;59.904;10.738;2023-04-03T09:00:51;7.90;45.20
74294;DHT22;64044;59.904;10.738;2023-04-03T09:03:19;7.90;45.30
74294;DHT22;64044;59.904;10.738;2023-04-03T09:17:00;7.70;45.00
74294;DHT22;64044;59.904;10.738;2023-04-03T09:22:25;7.60;44.90
74294;DHT22;64044;59.904;10.738;2023-04-03T09:27:23;7.50;45.50
74294;DHT22;64044;59.904;10.738;2023-04-03T09:29:53;7.50;45.50
74294;DHT22;64044;59.904;10.738;2023-04-03T09:32:29;7.40;45.50
74294;DHT22;64044;59.904;10.738;2023-04-03T09:34:59;7.30;46.30
74294;DHT22;64044;59.904;10.738;2023-04-03T09:37:46;7.30;46.60
74294;DHT22;64044;59.904;10.738;2023-04-03T09:42:52;7.20;47.60
74294;DHT22;64044;59.904;10.738;2023-04-03T09:45:36;7.20;47.10
74294;DHT22;64044;59.904;10.738;2023-04-03T09:48:13;7.20;48.30
74294;DHT22;64044;59.904;10.738;2023-04-03T09:55:53;7.20;48.00
74294;DHT22;64044;59.904;10.738;2023-04-03T09:58:28;7.30;47.20
74294;DHT22;64044;59.904;10.738;2023-04-03T10:01:00;7.30;47.80
74294;DHT22;64044;59.904;10.738;2023-04-03T10:03:32;7.30;47.90
74294;DHT22;64044;59.904;10.738;2023-04-03T10:06:01;7.40;47.60
74294;DHT22;64044;59.904;10.738;2023-04-03T10:08:32;7.40;48.00
74294;DHT22;64044;59.904;10.738;2023-04-03T10:11:06;7.40;48.20
74294;DHT22;64044;59.904;10.738;2023-04-03T10:13:33;7.50;49.40
74294;DHT22;64044;59.904;10.738;2023-04-03T10:16:01;7.60;47.50
74294;DHT22;64044;59.904;10.738;2023-04-03T10:21:48;7.70;48.20
74294;DHT22;64044;59.904;10.738;2023-04-03T10:24:28;7.70;48.00
74294;DHT22;64044;59.904;10.738;2023-04-03T10:27:13;7.80;48.10
74294;DHT22;64044;59.904;10.738;2023-04-03T10:35:25;8.10;47.90
74294;DHT22;64044;59.904;10.738;2023-04-03T10:43:33;8.30;47.40
74294;DHT22;64044;59.904;10.738;2023-04-03T10:54:00;8.80;46.40
74294;DHT22;64044;59.904;10.738;2023-04-03T10:56:39;8.90;46.20
74294;DHT22;64044;59.904;10.738;2023-04-03T11:01:39;9.20;45.80
74294;DHT22;64044;59.904;10.738;2023-04-03T11:04:06;9.40;45.70
74294;DHT22;64044;59.904;10.738;2023-04-03T11:09:33;9.80;45.60
74294;DHT22;64044;59.904;10.738;2023-04-03T11:12:30;10.00;45.50
74294;DHT22;64044;59.904;10.738;2023-04-03T11:14:59;10.40;45.40
74294;DHT22;64044;59.904;10.738;2023-04-03T11:17:41;10.60;45.20
74294;DHT22;64044;59.904;10.738;2023-04-03T11:20:28;10.90;44.90
74294;DHT22;64044;59.904;10.738;2023-04-03T11:23:02;11.30;45.30
74294;DHT22;64044;59.904;10.738;2023-04-03T11:25:30;11.60;44.30
74294;DHT22;64044;59.904;10.738;2023-04-03T11:28:05;12.00;44.10
74294;DHT22;64044;59.904;10.738;2023-04-03T11:36:49;13.30;42.50
74294;DHT22;64044;59.904;10.738;2023-04-03T11:41:47;14.10;41.70
74294;DHT22;64044;59.904;10.738;2023-04-03T11:46:57;14.90;39.90
74294;DHT22;64044;59.904;10.738;2023-04-03T11:49:55;15.30;40.30
74294;DHT22;64044;59.904;10.738;2023-04-03T12:03:31;17.50;36.40
74294;DHT22;64044;59.904;10.738;2023-04-03T12:09:01;18.20;34.70
74294;DHT22;64044;59.904;10.738;2023-04-03T12:11:32;18.40;35.20
74294;DHT22;64044;59.904;10.738;2023-04-03T12:16:46;18.80;34.10
74294;DHT22;64044;59.904;10.738;2023-04-03T12:29:42;19.50;32.10
74294;DHT22;64044;59.904;10.738;2023-04-03T12:43:40;20.30;30.40
74294;DHT22;64044;59.904;10.738;2023-04-03T12:51:41;20.60;30.10
74294;DHT22;64044;59.904;10.738;2023-04-03T12:56:43;20.90;29.50
74294;DHT22;64044;59.904;10.738;2023-04-03T12:59:27;21.00;29.60
74294;DHT22;64044;59.904;10.738;2023-04-03T13:01:55;21.10;28.60
74294;DHT22;64044;59.904;10.738;2023-04-03T13:04:21;21.10;29.30
74294;DHT22;64044;59.904;10.738;2023-04-03T13:06:47;21.20;29.40
74294;DHT22;64044;59.904;10.738;2023-04-03T13:11:47;21.40;28.60
74294;DHT22;64044;59.904;10.738;2023-04-03T13:14:24;21.60;28.90
74294;DHT22;64044;59.904;10.738;2023-04-03T13:19:35;22.00;28.00
74294;DHT22;64044;59.904;10.738;2023-04-03T13:22:07;22.30;28.70
74294;DHT22;64044;59.904;10.738;2023-04-03T13:24:37;22.50;28.00
74294;DHT22;64044;59.904;10.738;2023-04-03T13:27:04;22.90;27.80
74294;DHT22;64044;59.904;10.738;2023-04-03T13:29:33;23.10;27.80
74294;DHT22;64044;59.904;10.738;2023-04-03T13:32:01;23.40;27.40
74294;DHT22;64044;59.904;10.738;2023-04-03T13:34:29;23.60;27.00
74294;DHT22;64044;59.904;10.738;2023-04-03T13:37:01;23.80;26.60
74294;DHT22;64044;59.904;10.738;2023-04-03T13:39:35;24.00;26.70
74294;DHT22;64044;59.904;10.738;2023-04-03T13:42:25;24.20;26.00
74294;DHT22;64044;59.904;10.738;2023-04-03T13:47:43;24.90;24.90
74294;DHT22;64044;59.904;10.738;2023-04-03T13:50:24;25.20;24.50
74294;DHT22;64044;59.904;10.738;2023-04-03T13:52:59;25.50;24.70
74294;DHT22;64044;59.904;10.738;2023-04-03T13:55:33;25.70;24.50
74294;DHT22;64044;59.904;10.738;2023-04-03T13:58:18;25.80;24.60
74294;DHT22;64044;59.904;10.738;2023-04-03T14:03:59;26.30;23.80
74294;DHT22;64044;59.904;10.738;2023-04-03T14:06:25;26.60;23.50
74294;DHT22;64044;59.904;10.738;2023-04-03T14:08:51;26.80;23.70
74294;DHT22;64044;59.904;10.738;2023-04-03T14:11:26;26.90;23.00
74294;DHT22;64044;59.904;10.738;2023-04-03T14:13:57;27.00;22.30
74294;DHT22;64044;59.904;10.738;2023-04-03T14:16:26;27.10;22.60
74294;DHT22;64044;59.904;10.738;2023-04-03T14:18:53;27.20;22.50
74294;DHT22;64044;59.904;10.738;2023-04-03T14:21:19;27.30;22.50
74294;DHT22;64044;59.904;10.738;2023-04-03T14:23:47;27.40;22.30
74294;DHT22;64044;59.904;10.738;2023-04-03T14:26:23;27.50;22.20
74294;DHT22;64044;59.904;10.738;2023-04-03T14:28:53;27.60;21.70
74294;DHT22;64044;59.904;10.738;2023-04-03T14:31:20;27.60;22.00
74294;DHT22;64044;59.904;10.738;2023-04-03T14:33:47;27.70;22.20
74294;DHT22;64044;59.904;10.738;2023-04-03T14:36:20;27.80;21.70
74294;DHT22;64044;59.904;10.738;2023-04-03T14:38:47;28.00;21.80
74294;DHT22;64044;59.904;10.738;2023-04-03T14:41:15;28.10;21.90
74294;DHT22;64044;59.904;10.738;2023-04-03T14:43:41;28.10;21.60
74294;DHT22;64044;59.904;10.738;2023-04-03T14:46:17;28.20;21.20
74294;DHT22;64044;59.904;10.738;2023-04-03T14:48:44;28.30;20.40
74294;DHT22;64044;59.904;10.738;2023-04-03T14:51:14;28.40;21.00
74294;DHT22;64044;59.904;10.738;2023-04-03T14:53:42;28.50;20.70
74294;DHT22;64044;59.904;10.738;2023-04-03T14:56:28;28.60;20.50
74294;DHT22;64044;59.904;10.738;2023-04-03T14:58:59;28.60;19.70
74294;DHT22;64044;59.904;10.738;2023-04-03T15:01:27;28.50;19.60
74294;DHT22;64044;59.904;10.738;2023-04-03T15:03:53;28.30;19.70
74294;DHT22;64044;59.904;10.738;2023-04-03T15:06:19;28.10;19.50
74294;DHT22;64044;59.904;10.738;2023-04-03T15:08:47;27.80;19.60
74294;DHT22;64044;59.904;10.738;2023-04-03T15:11:14;27.60;19.70
74294;DHT22;64044;59.904;10.738;2023-04-03T15:13:40;27.30;19.80
74294;DHT22;64044;59.904;10.738;2023-04-03T15:16:17;26.90;19.60
74294;DHT22;64044;59.904;10.738;2023-04-03T15:18:44;26.40;19.60
74294;DHT22;64044;59.904;10.738;2023-04-03T15:21:10;25.90;19.90
74294;DHT22;64044;59.904;10.738;2023-04-03T15:23:36;25.30;20.20
74294;DHT22;64044;59.904;10.738;2023-04-03T15:26:03;24.70;20.70
74294;DHT22;64044;59.904;10.738;2023-04-03T15:28:37;24.00;20.90
74294;DHT22;64044;59.904;10.738;2023-04-03T15:31:05;23.40;21.50
74294;DHT22;64044;59.904;10.738;2023-04-03T15:33:31;22.80;21.90
74294;DHT22;64044;59.904;10.738;2023-04-03T15:35:57;22.20;22.40
74294;DHT22;64044;59.904;10.738;2023-04-03T15:38:23;21.60;22.60
74294;DHT22;64044;59.904;10.738;2023-04-03T15:40:49;21.20;23.10
74294;DHT22;64044;59.904;10.738;2023-04-03T15:43:15;20.80;23.70
74294;DHT22;64044;59.904;10.738;2023-04-03T15:45:41;20.50;24.10
74294;DHT22;64044;59.904;10.738;2023-04-03T15:48:08;20.10;24.40
74294;DHT22;64044;59.904;10.738;2023-04-03T15:50:34;19.90;24.90
74294;DHT22;64044;59.904;10.738;2023-04-03T15:53:02;19.70;25.50
74294;DHT22;64044;59.904;10.738;2023-04-03T15:55:30;19.50;25.50
74294;DHT22;64044;59.904;10.738;2023-04-03T15:57:56;19.30;25.40
74294;DHT22;64044;59.904;10.738;2023-04-03T16:00:23;19.10;25.70
74294;DHT22;64044;59.904;10.738;2023-04-03T16:02:55;18.90;26.20
74294;DHT22;64044;59.904;10.738;2023-04-03T16:05:22;18.90;26.70
74294;DHT22;64044;59.904;10.738;2023-04-03T16:07:48;19.10;27.20
74294;DHT22;64044;59.904;10.738;2023-04-03T16:10:16;19.30;27.30
74294;DHT22;64044;59.904;10.738;2023-04-03T16:12:42;19.50;27.60
74294;DHT22;64044;59.904;10.738;2023-04-03T16:15:08;19.70;27.30
74294;DHT22;64044;59.904;10.738;2023-04-03T16:17:36;19.90;27.20
74294;DHT22;64044;59.904;10.738;2023-04-03T16:20:03;20.10;27.20
74294;DHT22;64044;59.904;10.738;2023-04-03T16:22:29;20.40;27.10
74294;DHT22;64044;59.904;10.738;2023-04-03T16:24:55;20.70;27.10
74294;DHT22;64044;59.904;10.738;2023-04-03T16:27:22;20.90;27.10
74294;DHT22;64044;59.904;10.738;2023-04-03T16:29:55;21.10;26.80
74294;DHT22;64044;59.904;10.738;2023-04-03T16:32:22;21.20;26.30
74294;DHT22;64044;59.904;10.738;2023-04-03T16:34:48;21.00;26.20
74294;DHT22;64044;59.904;10.738;2023-04-03T16:37:15;20.70;26.20
74294;DHT22;64044;59.904;10.738;2023-04-03T16:39:41;20.40;26.50
74294;DHT22;64044;59.904;10.738;2023-04-03T16:42:07;20.10;26.90
74294;DHT22;64044;59.904;10.738;2023-04-03T16:44:34;19.90;27.10
74294;DHT22;64044;59.904;10.738;2023-04-03T16:47:00;19.60;27.40
74294;DHT22;64044;59.904;10.738;2023-04-03T16:49:26;19.40;27.70
74294;DHT22;64044;59.904;10.738;2023-04-03T16:51:58;19.20;28.30
74294;DHT22;64044;59.904;10.738;2023-04-03T16:54:23;19.10;28.70
74294;DHT22;64044;59.904;10.738;2023-04-03T16:56:49;19.00;28.80
74294;DHT22;64044;59.904;10.738;2023-04-03T16:59:15;19.10;29.10
74294;DHT22;64044;59.904;10.738;2023-04-03T17:01:41;19.10;29.10
74294;DHT22;64044;59.904;10.738;2023-04-03T17:04:06;19.10;29.00
74294;DHT22;64044;59.904;10.738;2023-04-03T17:06:32;19.00;29.10
74294;DHT22;64044;59.904;10.738;2023-04-03T17:08:58;19.00;29.10
74294;DHT22;64044;59.904;10.738;2023-04-03T17:11:24;18.90;29.00
74294;DHT22;64044;59.904;10.738;2023-04-03T17:13:50;18.80;29.00
74294;DHT22;64044;59.904;10.738;2023-04-03T17:16:16;18.50;28.90
74294;DHT22;64044;59.904;10.738;2023-04-03T17:18:43;18.10;29.00
74294;DHT22;64044;59.904;10.738;2023-04-03T17:21:09;17.70;29.10
74294;DHT22;64044;59.904;10.738;2023-04-03T17:23:36;17.30;29.30
74294;DHT22;64044;59.904;10.738;2023-04-03T17:26:03;16.80;29.70
74294;DHT22;64044;59.904;10.738;2023-04-03T17:28:29;16.40;30.20
74294;DHT22;64044;59.904;10.738;2023-04-03T17:30:56;15.90;30.60
74294;DHT22;64044;59.904;10.738;2023-04-03T17:33:24;15.40;31.40
74294;DHT22;64044;59.904;10.738;2023-04-03T17:35:51;15.10;32.10
74294;DHT22;64044;59.904;10.738;2023-04-03T17:38:17;14.70;32.60
74294;DHT22;64044;59.904;10.738;2023-04-03T17:40:43;14.30;33.40
74294;DHT22;64044;59.904;10.738;2023-04-03T17:43:10;13.90;34.10
74294;DHT22;64044;59.904;10.738;2023-04-03T17:45:36;13.60;34.70
74294;DHT22;64044;59.904;10.738;2023-04-03T17:48:02;13.20;35.30